createdAt,value
2018-09-14T00:02:35.162Z,98319.80
2018-09-14T00:07:28.727Z,98318.03
2018-09-14T00:12:21.910Z,98322.79
2018-09-14T00:17:15.090Z,98312.23
2018-09-14T00:22:08.256Z,98315.76
2018-09-14T00:27:01.415Z,98314.98
2018-09-14T00:31:54.924Z,98309.74
2018-09-14T00:36:48.047Z,98308.72
2018-09-14T00:41:41.490Z,98303.91
2018-09-14T00:46:34.686Z,98296.55
2018-09-14T00:51:27.836Z,98288.39
2018-09-14T00:56:21.331Z,98285.13
2018-09-14T01:01:14.883Z,98277.45
2018-09-14T01:06:08.109Z,98279.36
2018-09-14T01:11:01.717Z,98274.09
2018-09-14T01:15:54.840Z,98272.00
2018-09-14T01:20:47.882Z,98263.50
2018-09-14T01:25:41.047Z,98262.23
2018-09-14T01:30:34.230Z,98255.46
2018-09-14T01:35:33.513Z,98259.23
2018-09-14T01:40:26.565Z,98267.61
2018-09-14T01:45:19.650Z,98263.87
2018-09-14T01:50:12.861Z,98253.06
2018-09-14T01:55:06.370Z,98254.62
2018-09-14T01:59:59.488Z,98251.11
2018-09-14T02:04:54.947Z,98255.37
2018-09-14T02:09:48.077Z,98252.91
2018-09-14T02:14:41.324Z,98253.88
2018-09-14T02:19:34.920Z,98244.87
2018-09-14T02:24:28.392Z,98248.69
2018-09-14T02:29:21.522Z,98255.35
2018-09-14T02:34:14.777Z,98251.05
2018-09-14T02:39:08.548Z,98252.42
2018-09-14T02:44:01.638Z,98251.57
2018-09-14T02:48:54.744Z,98253.81
2018-09-14T02:53:47.966Z,98261.52
2018-09-14T02:58:44.727Z,98265.29
2018-09-14T03:03:37.871Z,98262.00
2018-09-14T03:08:30.975Z,98267.53
2018-09-14T03:13:24.064Z,98265.16
2018-09-14T03:18:17.117Z,98257.75
2018-09-14T03:23:10.143Z,98265.15
2018-09-14T03:28:03.251Z,98256.55
2018-09-14T03:32:56.356Z,98262.22
2018-09-14T03:37:49.962Z,98257.03
2018-09-14T03:42:43.378Z,98261.34
2018-09-14T03:47:36.501Z,98267.36
2018-09-14T03:52:29.691Z,98260.22
2018-09-14T03:57:26.187Z,98266.62
2018-09-14T04:02:19.486Z,98268.45
2018-09-14T04:07:12.917Z,98274.79
2018-09-14T04:12:06.522Z,98269.36
2018-09-14T04:16:59.621Z,98278.84
2018-09-14T04:21:52.750Z,98271.03
2018-09-14T04:26:47.526Z,98267.02
2018-09-14T04:31:40.768Z,98280.22
2018-09-14T04:36:34.711Z,98277.31
2018-09-14T04:41:27.864Z,98282.50
2018-09-14T04:46:21.092Z,98277.16
2018-09-14T04:51:14.614Z,98281.48
2018-09-14T04:56:10.484Z,98280.71
2018-09-14T05:01:10.660Z,98275.30
2018-09-14T05:06:05.099Z,98286.27
2018-09-14T05:11:00.744Z,98279.38
2018-09-14T05:15:58.131Z,98274.59
2018-09-14T05:20:52.554Z,98273.23
2018-09-14T05:25:47.760Z,98280.65
2018-09-14T05:30:41.581Z,98283.31
2018-09-14T05:35:37.661Z,98288.47
2018-09-14T05:40:31.589Z,98292.38
2018-09-14T05:45:28.996Z,98297.61
2018-09-14T05:50:24.493Z,98287.13
2018-09-14T05:55:17.821Z,98299.42
2018-09-14T06:00:11.515Z,98310.25
2018-09-14T06:05:10.063Z,98294.80
2018-09-14T06:10:05.198Z,98296.11
2018-09-14T06:14:58.540Z,98304.31
2018-09-14T06:19:52.276Z,98311.75
2018-09-14T06:24:46.159Z,98293.93
2018-09-14T06:29:40.002Z,98306.11
2018-09-14T06:34:33.738Z,98297.88
2018-09-14T06:39:28.119Z,98301.92
2018-09-14T06:44:21.420Z,98336.41
2018-09-14T06:49:15.813Z,98310.36
2018-09-14T06:54:09.920Z,98318.66
2018-09-14T06:59:03.506Z,98307.58
2018-09-14T07:03:57.303Z,98301.30
2018-09-14T07:08:50.454Z,98311.07
2018-09-14T07:13:43.772Z,98324.53
2018-09-14T07:18:38.112Z,98321.77
2018-09-14T07:23:31.281Z,98336.15
2018-09-14T07:28:24.457Z,98323.44
2018-09-14T07:33:17.615Z,98329.72
2018-09-14T07:38:11.336Z,98326.23
2018-09-14T07:43:04.636Z,98330.56
2018-09-14T07:47:57.709Z,98326.13
2018-09-14T07:52:50.990Z,98344.69
2018-09-14T07:57:44.397Z,98341.39
2018-09-14T08:02:38.731Z,98340.02
2018-09-14T08:07:32.201Z,98330.81
2018-09-14T08:12:25.619Z,98346.47
2018-09-14T08:17:18.763Z,98346.70
2018-09-14T08:22:13.935Z,98341.08
2018-09-14T08:27:07.439Z,98334.69
2018-09-14T08:32:01.315Z,98350.88
2018-09-14T08:36:54.555Z,98352.30
2018-09-14T08:41:47.937Z,98344.12
2018-09-14T08:46:41.360Z,98345.50
2018-09-14T08:51:34.649Z,98348.61
2018-09-14T08:56:28.743Z,98342.73
2018-09-14T09:01:21.995Z,98340.63
2018-09-14T09:06:15.306Z,98334.49
2018-09-14T09:11:08.689Z,98339.34
2018-09-14T09:16:02.500Z,98325.14
2018-09-14T09:20:56.287Z,98332.45
2018-09-14T09:25:49.370Z,98342.91
2018-09-14T09:30:42.655Z,98335.69
2018-09-14T09:35:35.889Z,98343.80
2018-09-14T09:40:29.661Z,98328.23
2018-09-14T09:45:22.906Z,98353.47
2018-09-14T09:50:16.940Z,98321.34
2018-09-14T09:55:10.167Z,98311.58
2018-09-14T10:00:03.674Z,98314.95
2018-09-14T10:05:02.670Z,98315.61
2018-09-14T10:09:56.399Z,98305.52
2018-09-14T10:14:50.224Z,98306.81
2018-09-14T10:19:43.995Z,98295.92
2018-09-14T10:24:37.192Z,98289.52
2018-09-14T10:29:33.095Z,98282.81
2018-09-14T10:34:27.070Z,98290.57
2018-09-14T10:39:23.372Z,98291.37
2018-09-14T10:44:18.173Z,98302.53
2018-09-14T10:49:13.523Z,98278.72
2018-09-14T10:54:06.885Z,98267.78
2018-09-14T10:59:00.162Z,98269.36
2018-09-14T11:03:53.226Z,98304.75
2018-09-14T11:08:47.350Z,98269.14
2018-09-14T11:13:40.812Z,98268.61
2018-09-14T11:18:34.479Z,98267.92
2018-09-14T11:23:27.937Z,98279.09
2018-09-14T11:28:21.134Z,98273.11
2018-09-14T11:33:14.178Z,98264.13
2018-09-14T11:38:07.572Z,98256.66
2018-09-14T11:43:00.753Z,98267.32
2018-09-14T11:47:55.336Z,98248.40
2018-09-14T11:52:48.622Z,98243.84
2018-09-14T11:57:42.157Z,98240.56
2018-09-14T12:02:35.561Z,98252.86
2018-09-14T12:07:32.206Z,98252.64
2018-09-14T12:12:25.379Z,98244.56
2018-09-14T12:17:18.523Z,98255.47
2018-09-14T12:22:12.227Z,98258.73
2018-09-14T12:27:06.332Z,98254.42
2018-09-14T12:31:59.483Z,98247.80
2018-09-14T12:36:52.801Z,98236.53
2018-09-14T12:41:46.303Z,98241.33
2018-09-14T12:46:39.581Z,98242.55
2018-09-14T12:51:33.656Z,98245.45
2018-09-14T12:56:26.792Z,98265.41
2018-09-14T13:01:20.206Z,98270.19
2018-09-14T13:06:13.602Z,98252.36
2018-09-14T13:11:06.903Z,98283.63
2018-09-14T13:16:00.276Z,98280.16
2018-09-14T13:20:53.457Z,98284.96
2018-09-14T13:25:46.538Z,98260.27
2018-09-14T13:30:39.790Z,98246.75
2018-09-14T13:35:32.830Z,98272.23
2018-09-14T13:40:31.315Z,98268.06
2018-09-14T13:45:25.664Z,98273.95
2018-09-14T13:50:18.783Z,98270.61
2018-09-14T13:55:12.085Z,98277.09
2018-09-14T14:00:05.812Z,98270.33
2018-09-14T14:04:59.015Z,98268.76
2018-09-14T14:09:52.413Z,98287.53
2018-09-14T14:14:45.456Z,98257.27
2018-09-14T14:19:38.865Z,98256.72
2018-09-14T14:24:32.423Z,98265.93
2018-09-14T14:29:25.559Z,98278.11
2018-09-14T14:34:19.343Z,98270.46
2018-09-14T14:39:13.981Z,98264.03
2018-09-14T14:44:07.552Z,98264.17
2018-09-14T14:49:00.642Z,98267.64
2018-09-14T14:53:54.239Z,98266.20
2018-09-14T14:58:47.876Z,98280.88
2018-09-14T15:03:40.996Z,98271.84
2018-09-14T15:08:34.131Z,98273.97
2018-09-14T15:13:27.605Z,98280.17
2018-09-14T15:18:20.680Z,98291.11
2018-09-14T15:23:14.895Z,98295.50
2018-09-14T15:28:08.396Z,98295.19
2018-09-14T15:38:17.987Z,98292.79
2018-09-14T15:43:11.265Z,98301.43
2018-09-14T15:48:04.971Z,98308.06
2018-09-14T15:52:58.154Z,98312.03
2018-09-14T15:57:51.349Z,98314.30
2018-09-14T16:02:45.151Z,98308.50
2018-09-14T16:07:38.274Z,98314.52
2018-09-14T16:12:31.561Z,98313.04
2018-09-14T16:17:24.547Z,98322.08
2018-09-14T16:22:18.423Z,98315.98
2018-09-14T16:27:11.539Z,98327.22
2018-09-14T16:32:05.653Z,98329.43
2018-09-14T16:36:59.036Z,98328.41
2018-09-14T16:41:52.114Z,98337.19
2018-09-14T16:46:45.980Z,98342.07
2018-09-14T16:51:39.407Z,98347.98
2018-09-14T16:56:32.968Z,98358.66
2018-09-14T17:01:26.422Z,98360.63
2018-09-14T17:06:19.907Z,98379.02
2018-09-14T17:11:14.367Z,98385.11
2018-09-14T17:16:08.673Z,98392.84
2018-09-14T17:21:02.473Z,98394.98
2018-09-14T17:25:55.735Z,98403.80
2018-09-14T17:30:49.103Z,98410.60
2018-09-14T17:35:43.285Z,98415.83
2018-09-14T17:40:36.299Z,98436.60
2018-09-14T17:45:29.256Z,98435.73
2018-09-14T17:50:22.533Z,98439.05
2018-09-14T17:55:16.205Z,98441.37
2018-09-14T18:00:10.357Z,98451.88
2018-09-14T18:05:05.050Z,98460.20
2018-09-14T18:09:58.126Z,98455.92
2018-09-14T18:14:51.230Z,98449.06
2018-09-14T18:19:44.210Z,98452.49
2018-09-14T18:24:37.587Z,98453.87
2018-09-14T18:29:31.647Z,98457.98
2018-09-14T18:34:25.067Z,98453.31
2018-09-14T18:39:18.204Z,98453.08
2018-09-14T18:44:11.375Z,98451.15
2018-09-14T18:49:04.744Z,98447.16
2018-09-14T18:53:57.965Z,98452.98
2018-09-14T18:58:51.238Z,98447.10
2018-09-14T19:03:46.182Z,98455.34
2018-09-14T19:08:39.516Z,98445.42
2018-09-14T19:13:32.985Z,98442.08
2018-09-14T19:18:30.979Z,98439.78
2018-09-14T19:23:24.359Z,98434.14
2018-09-14T19:28:17.538Z,98434.05
2018-09-14T19:33:10.705Z,98430.56
2018-09-14T19:38:03.921Z,98429.26
2018-09-14T19:42:56.994Z,98429.05
2018-09-14T19:47:50.174Z,98430.71
2018-09-14T19:52:43.335Z,98428.63
2018-09-14T19:57:36.669Z,98428.46
2018-09-14T20:02:29.723Z,98428.33
2018-09-14T20:07:22.845Z,98426.20
2018-09-14T20:12:15.929Z,98429.34
2018-09-14T20:17:09.051Z,98425.89
2018-09-14T20:22:02.326Z,98433.05
2018-09-14T20:26:55.365Z,98428.50
2018-09-14T20:31:48.401Z,98448.34
2018-09-14T20:36:41.561Z,98430.06
2018-09-14T20:41:34.701Z,98438.90
2018-09-14T20:46:28.007Z,98435.45
2018-09-14T20:51:21.427Z,98439.92
2018-09-14T20:56:14.861Z,98434.70
2018-09-14T21:01:08.602Z,98436.28
2018-09-14T21:06:01.683Z,98436.53
2018-09-14T21:10:54.850Z,98444.37
2018-09-14T21:15:47.883Z,98438.33
2018-09-14T21:20:41.307Z,98437.36
2018-09-14T21:25:34.941Z,98439.80
2018-09-14T21:30:28.355Z,98440.23
2018-09-14T21:35:21.368Z,98427.64
2018-09-14T21:40:14.508Z,98428.43
2018-09-14T21:45:07.674Z,98423.77
2018-09-14T21:50:01.082Z,98420.42
2018-09-14T21:54:54.195Z,98420.28
2018-09-14T21:59:47.310Z,98421.34
2018-09-14T22:04:40.360Z,98423.77
2018-09-14T22:09:33.673Z,98425.63
2018-09-14T22:14:26.707Z,98423.73
2018-09-14T22:19:19.657Z,98420.36
2018-09-14T22:24:12.746Z,98426.84
2018-09-14T22:29:06.403Z,98420.39
2018-09-14T22:34:00.402Z,98422.45
2018-09-14T22:38:53.420Z,98417.84
2018-09-14T22:43:47.131Z,98417.77
2018-09-14T22:48:40.046Z,98413.89
2018-09-14T22:53:34.255Z,98412.12
2018-09-14T22:58:27.687Z,98418.56
2018-09-14T23:03:20.749Z,98413.20
2018-09-14T23:08:14.098Z,98417.61
2018-09-14T23:13:07.118Z,98407.27
2018-09-14T23:18:00.414Z,98409.53
2018-09-14T23:22:53.567Z,98412.41
2018-09-14T23:27:46.637Z,98409.13
2018-09-14T23:32:40.198Z,98405.98
2018-09-14T23:37:33.218Z,98409.28
2018-09-14T23:42:26.279Z,98406.25
2018-09-14T23:47:19.326Z,98410.97
2018-09-14T23:52:12.601Z,98407.66
2018-09-14T23:57:05.715Z,98407.25
